sensor_id;sensor_type;location;lat;lon;timestamp;temperature;humidity
21787;DHT22;11055;50.870;4.316;2022-09-09T00:03:45;17.60;99.90
21787;DHT22;11055;50.870;4.316;2022-09-09T00:06:15;17.60;99.90
21787;DHT22;11055;50.870;4.316;2022-09-09T00:09:17;17.60;99.90
21787;DHT22;11055;50.870;4.316;2022-09-09T00:16:58;17.40;99.90
21787;DHT22;11055;50.870;4.316;2022-09-09T00:19:33;17.40;99.90
21787;DHT22;11055;50.870;4.316;2022-09-09T00:27:07;17.40;99.90
21787;DHT22;11055;50.870;4.316;2022-09-09T00:32:05;17.30;99.90
21787;DHT22;11055;50.870;4.316;2022-09-09T00:34:34;17.30;99.90
21787;DHT22;11055;50.870;4.316;2022-09-09T00:37:01;17.30;99.90
21787;DHT22;11055;50.870;4.316;2022-09-09T00:39:32;17.30;99.90
21787;DHT22;11055;50.870;4.316;2022-09-09T00:44:33;17.70;99.90
21787;DHT22;11055;50.870;4.316;2022-09-09T00:52:21;17.60;99.90
21787;DHT22;11055;50.870;4.316;2022-09-09T00:57:27;17.70;99.90
21787;DHT22;11055;50.870;4.316;2022-09-09T01:02:34;17.60;99.90
21787;DHT22;11055;50.870;4.316;2022-09-09T01:05:04;17.60;99.90
21787;DHT22;11055;50.870;4.316;2022-09-09T01:07:30;17.60;99.90
21787;DHT22;11055;50.870;4.316;2022-09-09T01:09:57;17.60;99.90
21787;DHT22;11055;50.870;4.316;2022-09-09T01:14:52;17.60;99.90
21787;DHT22;11055;50.870;4.316;2022-09-09T01:17:20;17.70;99.90
21787;DHT22;11055;50.870;4.316;2022-09-09T01:19:55;17.80;99.90
21787;DHT22;11055;50.870;4.316;2022-09-09T01:25:21;18.00;99.90
21787;DHT22;11055;50.870;4.316;2022-09-09T01:27:48;18.10;99.90
21787;DHT22;11055;50.870;4.316;2022-09-09T01:30:16;18.10;99.90
21787;DHT22;11055;50.870;4.316;2022-09-09T01:32:42;18.00;99.90
21787;DHT22;11055;50.870;4.316;2022-09-09T01:35:10;17.90;99.90
21787;DHT22;11055;50.870;4.316;2022-09-09T01:37:37;17.90;99.90
21787;DHT22;11055;50.870;4.316;2022-09-09T01:40:03;17.80;99.90
21787;DHT22;11055;50.870;4.316;2022-09-09T01:42:28;17.80;99.90
21787;DHT22;11055;50.870;4.316;2022-09-09T01:44:54;17.70;99.90
21787;DHT22;11055;50.870;4.316;2022-09-09T01:47:20;17.60;99.90
21787;DHT22;11055;50.870;4.316;2022-09-09T01:49:45;17.80;99.90
21787;DHT22;11055;50.870;4.316;2022-09-09T01:52:11;17.90;99.90
21787;DHT22;11055;50.870;4.316;2022-09-09T01:54:37;17.90;99.90
21787;DHT22;11055;50.870;4.316;2022-09-09T02:02:19;17.80;99.90
21787;DHT22;11055;50.870;4.316;2022-09-09T02:04:50;17.70;99.90
21787;DHT22;11055;50.870;4.316;2022-09-09T02:09:53;17.70;99.90
21787;DHT22;11055;50.870;4.316;2022-09-09T02:12:22;17.80;99.90
21787;DHT22;11055;50.870;4.316;2022-09-09T02:14:50;17.80;99.90
21787;DHT22;11055;50.870;4.316;2022-09-09T02:17:23;17.90;99.90
21787;DHT22;11055;50.870;4.316;2022-09-09T02:19:57;17.90;99.90
21787;DHT22;11055;50.870;4.316;2022-09-09T02:22:25;17.90;99.90
21787;DHT22;11055;50.870;4.316;2022-09-09T02:24:52;17.90;99.90
21787;DHT22;11055;50.870;4.316;2022-09-09T02:27:21;17.90;99.90
21787;DHT22;11055;50.870;4.316;2022-09-09T02:29:47;17.90;99.90
21787;DHT22;11055;50.870;4.316;2022-09-09T02:32:17;17.80;99.90
21787;DHT22;11055;50.870;4.316;2022-09-09T02:34:45;17.80;99.90
21787;DHT22;11055;50.870;4.316;2022-09-09T02:37:11;17.90;99.90
21787;DHT22;11055;50.870;4.316;2022-09-09T02:39:37;17.90;99.90
21787;DHT22;11055;50.870;4.316;2022-09-09T02:42:03;17.90;99.90
21787;DHT22;11055;50.870;4.316;2022-09-09T02:44:29;17.90;99.90
21787;DHT22;11055;50.870;4.316;2022-09-09T02:54:21;18.00;99.90
21787;DHT22;11055;50.870;4.316;2022-09-09T02:56:53;18.00;99.90
21787;DHT22;11055;50.870;4.316;2022-09-09T02:59:22;17.80;99.90
21787;DHT22;11055;50.870;4.316;2022-09-09T03:01:50;17.80;99.90
21787;DHT22;11055;50.870;4.316;2022-09-09T03:04:15;17.80;99.90
21787;DHT22;11055;50.870;4.316;2022-09-09T03:06:41;18.00;99.90
21787;DHT22;11055;50.870;4.316;2022-09-09T03:09:06;18.00;99.90
21787;DHT22;11055;50.870;4.316;2022-09-09T03:11:33;18.00;99.90
21787;DHT22;11055;50.870;4.316;2022-09-09T03:13:58;17.90;99.90
21787;DHT22;11055;50.870;4.316;2022-09-09T03:16:24;17.90;99.90
21787;DHT22;11055;50.870;4.316;2022-09-09T03:18:50;17.80;99.90
21787;DHT22;11055;50.870;4.316;2022-09-09T03:21:15;17.80;99.90
21787;DHT22;11055;50.870;4.316;2022-09-09T03:23:41;17.80;99.90
21787;DHT22;11055;50.870;4.316;2022-09-09T03:26:06;17.70;99.90
21787;DHT22;11055;50.870;4.316;2022-09-09T03:28:32;17.60;99.90
21787;DHT22;11055;50.870;4.316;2022-09-09T03:31:01;17.60;99.90
21787;DHT22;11055;50.870;4.316;2022-09-09T03:33:27;17.50;99.90
21787;DHT22;11055;50.870;4.316;2022-09-09T03:35:53;17.50;99.90
21787;DHT22;11055;50.870;4.316;2022-09-09T03:38:24;17.60;99.90
21787;DHT22;11055;50.870;4.316;2022-09-09T03:40:51;17.60;99.90
21787;DHT22;11055;50.870;4.316;2022-09-09T03:43:17;17.70;99.90
21787;DHT22;11055;50.870;4.316;2022-09-09T03:45:46;17.70;99.90
21787;DHT22;11055;50.870;4.316;2022-09-09T03:48:13;17.70;99.90
21787;DHT22;11055;50.870;4.316;2022-09-09T03:50:38;17.80;99.90
21787;DHT22;11055;50.870;4.316;2022-09-09T03:53:04;17.70;99.90
21787;DHT22;11055;50.870;4.316;2022-09-09T03:55:31;17.80;99.90
21787;DHT22;11055;50.870;4.316;2022-09-09T03:57:57;17.70;99.90
21787;DHT22;11055;50.870;4.316;2022-09-09T04:00:23;17.80;99.90
21787;DHT22;11055;50.870;4.316;2022-09-09T04:02:49;17.70;99.90
21787;DHT22;11055;50.870;4.316;2022-09-09T04:05:15;17.70;99.90
21787;DHT22;11055;50.870;4.316;2022-09-09T04:07:40;17.70;99.90
21787;DHT22;11055;50.870;4.316;2022-09-09T04:10:06;17.80;99.90
21787;DHT22;11055;50.870;4.316;2022-09-09T04:12:32;17.70;99.90
21787;DHT22;11055;50.870;4.316;2022-09-09T04:14:58;17.70;99.90
21787;DHT22;11055;50.870;4.316;2022-09-09T04:17:23;17.80;99.90
21787;DHT22;11055;50.870;4.316;2022-09-09T04:19:49;17.80;99.90
21787;DHT22;11055;50.870;4.316;2022-09-09T04:22:15;17.70;99.90
21787;DHT22;11055;50.870;4.316;2022-09-09T04:24:41;17.70;99.90
21787;DHT22;11055;50.870;4.316;2022-09-09T04:27:06;17.70;99.90
21787;DHT22;11055;50.870;4.316;2022-09-09T04:29:32;17.50;99.90
21787;DHT22;11055;50.870;4.316;2022-09-09T04:31:58;17.50;99.90
21787;DHT22;11055;50.870;4.316;2022-09-09T04:34:24;17.50;99.90
21787;DHT22;11055;50.870;4.316;2022-09-09T04:36:50;17.40;99.90
21787;DHT22;11055;50.870;4.316;2022-09-09T04:39:17;17.40;99.90
21787;DHT22;11055;50.870;4.316;2022-09-09T04:41:42;17.50;99.90
21787;DHT22;11055;50.870;4.316;2022-09-09T04:44:08;17.50;99.90
21787;DHT22;11055;50.870;4.316;2022-09-09T04:46:35;17.50;99.90
21787;DHT22;11055;50.870;4.316;2022-09-09T04:49:00;17.40;99.90
21787;DHT22;11055;50.870;4.316;2022-09-09T04:51:26;17.50;99.90
21787;DHT22;11055;50.870;4.316;2022-09-09T04:53:52;17.50;99.90
21787;DHT22;11055;50.870;4.316;2022-09-09T04:56:19;17.50;99.90
21787;DHT22;11055;50.870;4.316;2022-09-09T04:58:44;17.50;99.90
21787;DHT22;11055;50.870;4.316;2022-09-09T05:01:15;17.50;99.90
21787;DHT22;11055;50.870;4.316;2022-09-09T05:03:41;17.40;99.90
21787;DHT22;11055;50.870;4.316;2022-09-09T05:06:11;17.30;99.90
21787;DHT22;11055;50.870;4.316;2022-09-09T05:08:39;17.20;99.90
21787;DHT22;11055;50.870;4.316;2022-09-09T05:11:18;17.20;99.90
21787;DHT22;11055;50.870;4.316;2022-09-09T05:13:44;17.10;99.90
21787;DHT22;11055;50.870;4.316;2022-09-09T05:16:10;17.20;99.90
21787;DHT22;11055;50.870;4.316;2022-09-09T05:18:37;17.20;99.90
21787;DHT22;11055;50.870;4.316;2022-09-09T05:21:02;17.30;99.90
21787;DHT22;11055;50.870;4.316;2022-09-09T05:23:28;17.50;99.90
21787;DHT22;11055;50.870;4.316;2022-09-09T05:25:57;17.50;99.90
21787;DHT22;11055;50.870;4.316;2022-09-09T05:28:23;17.50;99.90
21787;DHT22;11055;50.870;4.316;2022-09-09T05:31:00;17.50;99.90
21787;DHT22;11055;50.870;4.316;2022-09-09T05:33:26;17.60;99.90
21787;DHT22;11055;50.870;4.316;2022-09-09T05:35:56;17.60;99.90
21787;DHT22;11055;50.870;4.316;2022-09-09T05:38:22;17.60;99.90
21787;DHT22;11055;50.870;4.316;2022-09-09T05:40:50;17.60;99.90
21787;DHT22;11055;50.870;4.316;2022-09-09T05:43:20;17.60;99.90
21787;DHT22;11055;50.870;4.316;2022-09-09T05:45:46;17.50;99.90
21787;DHT22;11055;50.870;4.316;2022-09-09T05:48:14;17.60;99.90
21787;DHT22;11055;50.870;4.316;2022-09-09T05:50:41;17.50;99.90
21787;DHT22;11055;50.870;4.316;2022-09-09T05:53:08;17.50;99.90
21787;DHT22;11055;50.870;4.316;2022-09-09T05:55:34;17.50;99.90
21787;DHT22;11055;50.870;4.316;2022-09-09T05:57:59;17.60;99.90
21787;DHT22;11055;50.870;4.316;2022-09-09T06:00:25;17.70;99.90
21787;DHT22;11055;50.870;4.316;2022-09-09T06:02:52;17.70;99.90
21787;DHT22;11055;50.870;4.316;2022-09-09T06:05:18;17.60;99.90
21787;DHT22;11055;50.870;4.316;2022-09-09T06:07:43;17.60;99.90
21787;DHT22;11055;50.870;4.316;2022-09-09T06:10:10;17.60;99.90
21787;DHT22;11055;50.870;4.316;2022-09-09T06:12:35;17.60;99.90
21787;DHT22;11055;50.870;4.316;2022-09-09T06:15:01;17.70;99.90
21787;DHT22;11055;50.870;4.316;2022-09-09T06:17:27;17.70;99.90
21787;DHT22;11055;50.870;4.316;2022-09-09T06:19:52;17.70;99.90
21787;DHT22;11055;50.870;4.316;2022-09-09T06:22:18;17.80;99.90
21787;DHT22;11055;50.870;4.316;2022-09-09T06:24:44;17.70;99.90
21787;DHT22;11055;50.870;4.316;2022-09-09T06:27:10;17.80;99.90
21787;DHT22;11055;50.870;4.316;2022-09-09T06:29:36;17.80;99.90
21787;DHT22;11055;50.870;4.316;2022-09-09T06:32:02;17.80;99.90
21787;DHT22;11055;50.870;4.316;2022-09-09T06:34:28;17.80;99.90
21787;DHT22;11055;50.870;4.316;2022-09-09T06:36:53;18.00;99.90
21787;DHT22;11055;50.870;4.316;2022-09-09T06:39:19;17.90;99.90
21787;DHT22;11055;50.870;4.316;2022-09-09T06:41:44;17.90;99.90
21787;DHT22;11055;50.870;4.316;2022-09-09T06:44:10;18.00;99.90
21787;DHT22;11055;50.870;4.316;2022-09-09T06:46:38;18.10;99.90
21787;DHT22;11055;50.870;4.316;2022-09-09T06:49:04;18.10;99.90
21787;DHT22;11055;50.870;4.316;2022-09-09T06:51:31;18.10;99.90
21787;DHT22;11055;50.870;4.316;2022-09-09T06:53:58;17.90;99.90
21787;DHT22;11055;50.870;4.316;2022-09-09T06:56:31;18.00;99.90
21787;DHT22;11055;50.870;4.316;2022-09-09T06:58:58;17.80;99.90
21787;DHT22;11055;50.870;4.316;2022-09-09T07:01:24;17.80;99.90
21787;DHT22;11055;50.870;4.316;2022-09-09T07:03:51;17.80;99.90
21787;DHT22;11055;50.870;4.316;2022-09-09T07:06:21;17.80;99.90
21787;DHT22;11055;50.870;4.316;2022-09-09T07:08:51;17.80;99.90
21787;DHT22;11055;50.870;4.316;2022-09-09T07:11:17;17.80;99.90
21787;DHT22;11055;50.870;4.316;2022-09-09T07:13:42;17.80;99.90
21787;DHT22;11055;50.870;4.316;2022-09-09T07:16:12;17.80;99.90
21787;DHT22;11055;50.870;4.316;2022-09-09T07:18:41;17.80;99.90
21787;DHT22;11055;50.870;4.316;2022-09-09T07:21:07;17.80;99.90
21787;DHT22;11055;50.870;4.316;2022-09-09T07:23:34;17.80;99.90
21787;DHT22;11055;50.870;4.316;2022-09-09T07:26:01;17.70;99.90
21787;DHT22;11055;50.870;4.316;2022-09-09T07:28:26;17.80;99.90
21787;DHT22;11055;50.870;4.316;2022-09-09T07:30:57;17.80;99.90
21787;DHT22;11055;50.870;4.316;2022-09-09T07:33:24;17.80;99.90
21787;DHT22;11055;50.870;4.316;2022-09-09T07:35:50;17.80;99.90
21787;DHT22;11055;50.870;4.316;2022-09-09T07:38:16;17.90;99.90
21787;DHT22;11055;50.870;4.316;2022-09-09T07:40:41;18.00;99.90
21787;DHT22;11055;50.870;4.316;2022-09-09T07:43:07;18.00;99.90
21787;DHT22;11055;50.870;4.316;2022-09-09T07:45:33;18.10;99.90
21787;DHT22;11055;50.870;4.316;2022-09-09T07:47:59;17.90;99.90
21787;DHT22;11055;50.870;4.316;2022-09-09T07:50:25;18.00;99.90
21787;DHT22;11055;50.870;4.316;2022-09-09T07:52:51;17.90;99.90
21787;DHT22;11055;50.870;4.316;2022-09-09T07:55:16;18.00;99.90
21787;DHT22;11055;50.870;4.316;2022-09-09T07:57:42;17.90;99.90
21787;DHT22;11055;50.870;4.316;2022-09-09T08:00:07;17.80;99.90
21787;DHT22;11055;50.870;4.316;2022-09-09T08:02:33;17.80;99.90
21787;DHT22;11055;50.870;4.316;2022-09-09T08:04:59;18.00;99.90
21787;DHT22;11055;50.870;4.316;2022-09-09T08:07:24;17.90;99.90
21787;DHT22;11055;50.870;4.316;2022-09-09T08:09:50;17.80;99.90
21787;DHT22;11055;50.870;4.316;2022-09-09T08:12:15;17.90;99.90
21787;DHT22;11055;50.870;4.316;2022-09-09T08:14:41;18.00;99.90
21787;DHT22;11055;50.870;4.316;2022-09-09T08:17:07;18.20;99.90
21787;DHT22;11055;50.870;4.316;2022-09-09T08:19:32;18.20;99.90
21787;DHT22;11055;50.870;4.316;2022-09-09T08:22:01;18.10;99.90
21787;DHT22;11055;50.870;4.316;2022-09-09T08:24:27;18.20;99.90
21787;DHT22;11055;50.870;4.316;2022-09-09T08:26:52;18.30;99.90
21787;DHT22;11055;50.870;4.316;2022-09-09T08:29:18;18.10;99.90
21787;DHT22;11055;50.870;4.316;2022-09-09T08:31:49;18.10;99.90
21787;DHT22;11055;50.870;4.316;2022-09-09T08:34:16;18.10;99.90
21787;DHT22;11055;50.870;4.316;2022-09-09T08:36:43;18.10;99.90
21787;DHT22;11055;50.870;4.316;2022-09-09T08:39:10;18.20;99.90
21787;DHT22;11055;50.870;4.316;2022-09-09T08:41:42;18.30;99.90
21787;DHT22;11055;50.870;4.316;2022-09-09T08:47:03;18.10;99.90
21787;DHT22;11055;50.870;4.316;2022-09-09T08:49:55;18.00;99.90
21787;DHT22;11055;50.870;4.316;2022-09-09T08:52:19;17.90;99.90
21787;DHT22;11055;50.870;4.316;2022-09-09T08:54:47;17.90;99.90
21787;DHT22;11055;50.870;4.316;2022-09-09T08:57:20;18.00;99.90
21787;DHT22;11055;50.870;4.316;2022-09-09T08:59:52;18.00;99.90
21787;DHT22;11055;50.870;4.316;2022-09-09T09:03:05;18.00;99.90
21787;DHT22;11055;50.870;4.316;2022-09-09T09:05:17;18.00;99.90
21787;DHT22;11055;50.870;4.316;2022-09-09T09:10:33;18.00;99.90
21787;DHT22;11055;50.870;4.316;2022-09-09T09:13:01;18.00;99.90
21787;DHT22;11055;50.870;4.316;2022-09-09T09:15:30;18.00;99.90
21787;DHT22;11055;50.870;4.316;2022-09-09T09:17:57;18.00;99.90
21787;DHT22;11055;50.870;4.316;2022-09-09T09:20:27;18.00;99.90
21787;DHT22;11055;50.870;4.316;2022-09-09T09:22:56;18.00;99.90
21787;DHT22;11055;50.870;4.316;2022-09-09T09:25:27;18.10;99.90
21787;DHT22;11055;50.870;4.316;2022-09-09T09:28:07;18.10;99.90
21787;DHT22;11055;50.870;4.316;2022-09-09T09:30:36;18.20;99.90
21787;DHT22;11055;50.870;4.316;2022-09-09T09:35:49;18.00;99.90
21787;DHT22;11055;50.870;4.316;2022-09-09T09:38:33;18.10;99.90
21787;DHT22;11055;50.870;4.316;2022-09-09T09:40:59;18.00;99.90
21787;DHT22;11055;50.870;4.316;2022-09-09T09:43:29;18.00;99.90
21787;DHT22;11055;50.870;4.316;2022-09-09T09:45:56;18.10;99.90
21787;DHT22;11055;50.870;4.316;2022-09-09T09:48:23;18.10;99.90
21787;DHT22;11055;50.870;4.316;2022-09-09T09:50:50;18.20;99.90
21787;DHT22;11055;50.870;4.316;2022-09-09T09:53:18;18.20;99.90
21787;DHT22;11055;50.870;4.316;2022-09-09T09:55:47;18.10;99.90
21787;DHT22;11055;50.870;4.316;2022-09-09T09:58:17;18.10;99.90
21787;DHT22;11055;50.870;4.316;2022-09-09T10:00:52;18.20;99.90
21787;DHT22;11055;50.870;4.316;2022-09-09T10:03:21;18.20;99.90
21787;DHT22;11055;50.870;4.316;2022-09-09T10:05:47;18.10;99.90
21787;DHT22;11055;50.870;4.316;2022-09-09T10:08:13;18.20;99.90
21787;DHT22;11055;50.870;4.316;2022-09-09T10:13:18;18.00;99.90
21787;DHT22;11055;50.870;4.316;2022-09-09T10:18:29;18.00;99.90
21787;DHT22;11055;50.870;4.316;2022-09-09T10:21:03;18.00;99.90
21787;DHT22;11055;50.870;4.316;2022-09-09T10:26:37;18.20;99.90
21787;DHT22;11055;50.870;4.316;2022-09-09T10:36:52;18.30;99.90
21787;DHT22;11055;50.870;4.316;2022-09-09T10:49:57;18.80;99.90
21787;DHT22;11055;50.870;4.316;2022-09-09T10:52:32;18.90;99.90
21787;DHT22;11055;50.870;4.316;2022-09-09T10:55:13;18.80;99.90
21787;DHT22;11055;50.870;4.316;2022-09-09T10:57:40;18.70;99.90
21787;DHT22;11055;50.870;4.316;2022-09-09T11:02:43;18.70;99.90
21787;DHT22;11055;50.870;4.316;2022-09-09T11:05:27;18.70;99.90
21787;DHT22;11055;50.870;4.316;2022-09-09T11:10:59;18.80;99.90
21787;DHT22;11055;50.870;4.316;2022-09-09T11:15:55;18.70;99.90
21787;DHT22;11055;50.870;4.316;2022-09-09T11:18:22;18.80;99.90
21787;DHT22;11055;50.870;4.316;2022-09-09T11:20:49;18.80;99.90
21787;DHT22;11055;50.870;4.316;2022-09-09T11:23:17;18.90;99.90
21787;DHT22;11055;50.870;4.316;2022-09-09T11:25:48;19.00;99.90
21787;DHT22;11055;50.870;4.316;2022-09-09T11:39:02;18.90;99.90
21787;DHT22;11055;50.870;4.316;2022-09-09T11:41:35;18.90;99.90
21787;DHT22;11055;50.870;4.316;2022-09-09T11:44:09;18.80;99.90
21787;DHT22;11055;50.870;4.316;2022-09-09T11:46:36;18.80;99.90
21787;DHT22;11055;50.870;4.316;2022-09-09T11:49:06;18.90;99.90
21787;DHT22;11055;50.870;4.316;2022-09-09T11:51:47;18.80;99.90
21787;DHT22;11055;50.870;4.316;2022-09-09T11:54:26;18.90;99.90
21787;DHT22;11055;50.870;4.316;2022-09-09T11:56:54;18.90;99.90
21787;DHT22;11055;50.870;4.316;2022-09-09T11:59:24;18.80;99.90
21787;DHT22;11055;50.870;4.316;2022-09-09T12:02:13;18.90;99.90
21787;DHT22;11055;50.870;4.316;2022-09-09T12:04:40;18.90;99.90
21787;DHT22;11055;50.870;4.316;2022-09-09T12:09:42;19.00;99.90
21787;DHT22;11055;50.870;4.316;2022-09-09T12:14:38;18.90;99.90
21787;DHT22;11055;50.870;4.316;2022-09-09T12:19:38;18.90;99.90
21787;DHT22;11055;50.870;4.316;2022-09-09T12:24:54;18.80;99.90
21787;DHT22;11055;50.870;4.316;2022-09-09T12:30:11;18.80;99.90
21787;DHT22;11055;50.870;4.316;2022-09-09T12:32:36;18.90;99.90
21787;DHT22;11055;50.870;4.316;2022-09-09T12:35:10;18.90;99.90
21787;DHT22;11055;50.870;4.316;2022-09-09T12:37:40;18.90;99.90
21787;DHT22;11055;50.870;4.316;2022-09-09T12:40:21;19.00;99.90
21787;DHT22;11055;50.870;4.316;2022-09-09T12:42:47;19.10;99.90
21787;DHT22;11055;50.870;4.316;2022-09-09T12:45:16;19.00;99.90
21787;DHT22;11055;50.870;4.316;2022-09-09T12:50:22;19.10;99.90
21787;DHT22;11055;50.870;4.316;2022-09-09T12:52:51;19.10;99.90
21787;DHT22;11055;50.870;4.316;2022-09-09T12:55:27;19.10;99.90
21787;DHT22;11055;50.870;4.316;2022-09-09T12:57:55;19.20;99.90
21787;DHT22;11055;50.870;4.316;2022-09-09T13:00:22;19.20;99.90
21787;DHT22;11055;50.870;4.316;2022-09-09T13:02:58;19.10;99.90
21787;DHT22;11055;50.870;4.316;2022-09-09T13:05:25;19.10;99.90
21787;DHT22;11055;50.870;4.316;2022-09-09T13:07:51;19.10;99.90
21787;DHT22;11055;50.870;4.316;2022-09-09T13:10:27;19.20;99.90
21787;DHT22;11055;50.870;4.316;2022-09-09T13:12:54;19.30;99.90
21787;DHT22;11055;50.870;4.316;2022-09-09T13:15:22;19.30;99.90
21787;DHT22;11055;50.870;4.316;2022-09-09T13:17:56;19.50;99.90
21787;DHT22;11055;50.870;4.316;2022-09-09T13:20:22;19.60;99.90
21787;DHT22;11055;50.870;4.316;2022-09-09T13:22:49;19.70;99.90
21787;DHT22;11055;50.870;4.316;2022-09-09T13:25:20;19.70;99.90
21787;DHT22;11055;50.870;4.316;2022-09-09T13:27:53;19.70;99.90
21787;DHT22;11055;50.870;4.316;2022-09-09T13:30:23;19.60;99.90
21787;DHT22;11055;50.870;4.316;2022-09-09T13:33:03;19.80;99.90
21787;DHT22;11055;50.870;4.316;2022-09-09T13:35:28;19.90;99.90
21787;DHT22;11055;50.870;4.316;2022-09-09T13:37:54;20.00;99.90
21787;DHT22;11055;50.870;4.316;2022-09-09T13:40:21;20.10;99.90
21787;DHT22;11055;50.870;4.316;2022-09-09T13:42:50;20.10;99.90
21787;DHT22;11055;50.870;4.316;2022-09-09T13:45:21;20.10;99.90
21787;DHT22;11055;50.870;4.316;2022-09-09T13:47:47;20.20;99.90
21787;DHT22;11055;50.870;4.316;2022-09-09T13:50:27;20.20;99.90
21787;DHT22;11055;50.870;4.316;2022-09-09T13:52:54;20.20;99.90
21787;DHT22;11055;50.870;4.316;2022-09-09T13:55:20;20.20;99.90
21787;DHT22;11055;50.870;4.316;2022-09-09T13:57:54;20.00;99.90
21787;DHT22;11055;50.870;4.316;2022-09-09T14:00:20;20.10;99.90
21787;DHT22;11055;50.870;4.316;2022-09-09T14:02:46;20.10;99.90
21787;DHT22;11055;50.870;4.316;2022-09-09T14:05:12;20.10;99.90
21787;DHT22;11055;50.870;4.316;2022-09-09T14:07:38;20.00;99.90
21787;DHT22;11055;50.870;4.316;2022-09-09T14:10:05;20.00;99.90
21787;DHT22;11055;50.870;4.316;2022-09-09T14:12:31;19.90;99.90
21787;DHT22;11055;50.870;4.316;2022-09-09T14:14:58;19.90;99.90
21787;DHT22;11055;50.870;4.316;2022-09-09T14:17:26;19.90;99.90
21787;DHT22;11055;50.870;4.316;2022-09-09T14:19:54;19.90;99.90
21787;DHT22;11055;50.870;4.316;2022-09-09T14:22:20;19.80;99.90
21787;DHT22;11055;50.870;4.316;2022-09-09T14:24:45;20.00;99.90
21787;DHT22;11055;50.870;4.316;2022-09-09T14:27:11;19.90;99.90
21787;DHT22;11055;50.870;4.316;2022-09-09T14:29:37;19.90;99.90
21787;DHT22;11055;50.870;4.316;2022-09-09T14:32:02;19.80;99.90
21787;DHT22;11055;50.870;4.316;2022-09-09T14:34:28;19.80;99.90
21787;DHT22;11055;50.870;4.316;2022-09-09T14:36:53;19.90;99.90
21787;DHT22;11055;50.870;4.316;2022-09-09T14:39:19;20.00;99.90
21787;DHT22;11055;50.870;4.316;2022-09-09T14:41:44;20.00;99.90
21787;DHT22;11055;50.870;4.316;2022-09-09T14:44:11;20.00;99.90
21787;DHT22;11055;50.870;4.316;2022-09-09T14:46:36;20.10;99.90
21787;DHT22;11055;50.870;4.316;2022-09-09T14:49:02;20.10;99.90
21787;DHT22;11055;50.870;4.316;2022-09-09T14:51:27;20.10;99.90
21787;DHT22;11055;50.870;4.316;2022-09-09T14:53:57;20.20;99.90
21787;DHT22;11055;50.870;4.316;2022-09-09T14:56:24;20.30;99.90
21787;DHT22;11055;50.870;4.316;2022-09-09T14:58:50;20.40;99.90
21787;DHT22;11055;50.870;4.316;2022-09-09T15:01:17;20.40;99.90
21787;DHT22;11055;50.870;4.316;2022-09-09T15:03:48;20.40;99.90
21787;DHT22;11055;50.870;4.316;2022-09-09T15:06:14;20.40;99.90
21787;DHT22;11055;50.870;4.316;2022-09-09T15:08:41;20.20;99.90
21787;DHT22;11055;50.870;4.316;2022-09-09T15:11:07;20.10;99.90
21787;DHT22;11055;50.870;4.316;2022-09-09T15:13:33;20.10;99.90
21787;DHT22;11055;50.870;4.316;2022-09-09T15:16:20;20.10;99.90
21787;DHT22;11055;50.870;4.316;2022-09-09T15:18:45;20.10;99.90
21787;DHT22;11055;50.870;4.316;2022-09-09T15:21:15;20.10;99.90
21787;DHT22;11055;50.870;4.316;2022-09-09T15:23:41;20.20;99.90
21787;DHT22;11055;50.870;4.316;2022-09-09T15:26:07;20.20;99.90
21787;DHT22;11055;50.870;4.316;2022-09-09T15:28:33;20.20;99.90
21787;DHT22;11055;50.870;4.316;2022-09-09T15:31:06;20.20;99.90
21787;DHT22;11055;50.870;4.316;2022-09-09T15:33:32;20.10;99.90
21787;DHT22;11055;50.870;4.316;2022-09-09T15:35:58;19.90;99.90
21787;DHT22;11055;50.870;4.316;2022-09-09T15:38:23;19.90;99.90
21787;DHT22;11055;50.870;4.316;2022-09-09T15:40:53;19.80;99.90
21787;DHT22;11055;50.870;4.316;2022-09-09T15:43:19;19.80;99.90
21787;DHT22;11055;50.870;4.316;2022-09-09T15:45:45;20.00;99.90
21787;DHT22;11055;50.870;4.316;2022-09-09T15:48:11;20.00;99.90
21787;DHT22;11055;50.870;4.316;2022-09-09T15:50:37;20.00;99.90
21787;DHT22;11055;50.870;4.316;2022-09-09T15:53:02;19.90;99.90
21787;DHT22;11055;50.870;4.316;2022-09-09T15:55:28;19.90;99.90
21787;DHT22;11055;50.870;4.316;2022-09-09T15:57:53;19.90;99.90
21787;DHT22;11055;50.870;4.316;2022-09-09T16:00:20;19.90;99.90
21787;DHT22;11055;50.870;4.316;2022-09-09T16:02:46;19.80;99.90
21787;DHT22;11055;50.870;4.316;2022-09-09T16:05:12;19.80;99.90
21787;DHT22;11055;50.870;4.316;2022-09-09T16:07:37;19.80;99.90
21787;DHT22;11055;50.870;4.316;2022-09-09T16:10:03;19.80;99.90
21787;DHT22;11055;50.870;4.316;2022-09-09T16:12:28;19.80;99.90
21787;DHT22;11055;50.870;4.316;2022-09-09T16:14:54;19.80;99.90
21787;DHT22;11055;50.870;4.316;2022-09-09T16:17:20;19.70;99.90
21787;DHT22;11055;50.870;4.316;2022-09-09T16:19:46;19.60;99.90
21787;DHT22;11055;50.870;4.316;2022-09-09T16:22:11;19.50;99.90
21787;DHT22;11055;50.870;4.316;2022-09-09T16:24:37;19.50;99.90
21787;DHT22;11055;50.870;4.316;2022-09-09T16:27:02;19.40;99.90
21787;DHT22;11055;50.870;4.316;2022-09-09T16:29:28;19.30;99.90
21787;DHT22;11055;50.870;4.316;2022-09-09T16:31:54;19.40;99.90
21787;DHT22;11055;50.870;4.316;2022-09-09T16:34:21;19.40;99.90
21787;DHT22;11055;50.870;4.316;2022-09-09T16:36:47;19.50;99.90
21787;DHT22;11055;50.870;4.316;2022-09-09T16:39:14;19.40;99.90
21787;DHT22;11055;50.870;4.316;2022-09-09T16:41:41;19.20;99.90
21787;DHT22;11055;50.870;4.316;2022-09-09T16:44:09;19.10;99.90
21787;DHT22;11055;50.870;4.316;2022-09-09T16:46:37;19.10;99.90
21787;DHT22;11055;50.870;4.316;2022-09-09T16:49:04;19.00;99.90
21787;DHT22;11055;50.870;4.316;2022-09-09T16:51:31;19.00;99.90
21787;DHT22;11055;50.870;4.316;2022-09-09T16:53:58;19.10;99.90
21787;DHT22;11055;50.870;4.316;2022-09-09T16:56:25;19.20;99.90
21787;DHT22;11055;50.870;4.316;2022-09-09T16:58:51;19.30;99.90
21787;DHT22;11055;50.870;4.316;2022-09-09T17:01:18;19.40;99.90
21787;DHT22;11055;50.870;4.316;2022-09-09T17:03:43;19.40;99.90
21787;DHT22;11055;50.870;4.316;2022-09-09T17:06:12;19.30;99.90
21787;DHT22;11055;50.870;4.316;2022-09-09T17:08:38;19.30;99.90
21787;DHT22;11055;50.870;4.316;2022-09-09T17:11:10;19.30;99.90
21787;DHT22;11055;50.870;4.316;2022-09-09T17:13:39;19.50;99.90
21787;DHT22;11055;50.870;4.316;2022-09-09T17:16:04;19.60;99.90
21787;DHT22;11055;50.870;4.316;2022-09-09T17:18:30;19.70;99.90
21787;DHT22;11055;50.870;4.316;2022-09-09T17:21:01;19.80;99.90
21787;DHT22;11055;50.870;4.316;2022-09-09T17:23:28;19.60;99.90
21787;DHT22;11055;50.870;4.316;2022-09-09T17:25:57;19.40;99.90
21787;DHT22;11055;50.870;4.316;2022-09-09T17:28:23;19.30;99.90
21787;DHT22;11055;50.870;4.316;2022-09-09T17:30:52;19.20;99.90
21787;DHT22;11055;50.870;4.316;2022-09-09T17:33:18;19.10;99.90